CMA CGM Columba — 2DBC9 — position and weather

sailwx.info

Track history (hours):
 
Tides and Currents Weather Stations Pressure Air Temp Water Temp Dewpoint Dewpoint Depression Visibility Wind Speed Wind Dir Waves Ship Positions

CMA CGM Columba

Last reported at 2016-Aug-26 20:09 UTC. Time now 2016-Aug-27 01:10 UTC.
Position N 33°44' W 118°15'.

Length 363 m; draft 12.8 m.

Type: Ship (hazmat cat A). MMSI: 235077448.

Date/timePositionNaut miles runAvg speedWind from/ knotsBaromVisibWave heightAir tempDewpointWater temp
2016-Aug-26 20:09N 33°44' W 118°15'0 0.0
2016-Aug-26 19:33N 33°44' W 118°15'0 0.0
2016-Aug-26 18:33N 33°44' W 118°15'0 0.0
2016-Aug-26 17:30N 33°44' W 118°15'0 0.0
2016-Aug-26 15:27N 33°44' W 118°15'0 0.0
2016-Aug-26 14:33N 33°44' W 118°15'0 0.0
2016-Aug-26 13:33N 33°44' W 118°15'0 0.0
2016-Aug-26 12:33N 33°44' W 118°15'0 0.0
2016-Aug-26 11:33N 33°44' W 118°15'0 0.0
2016-Aug-26 10:33N 33°44' W 118°15'0 0.0
2016-Aug-26 09:33N 33°44' W 118°15'0 0.0
2016-Aug-26 08:30N 33°44' W 118°15'0 0.0
2016-Aug-26 07:33N 33°44' W 118°15'0 0.0
2016-Aug-26 06:33N 33°44' W 118°15'0 0.0
2016-Aug-26 04:33N 33°44' W 118°15'0 0.0
2016-Aug-26 03:33N 33°44' W 118°15'0 0.0
2016-Aug-26 02:30N 33°44' W 118°15'0 0.0
2016-Aug-26 01:33N 33°44' W 118°15'0 0.0
2016-Aug-26 00:33N 33°44' W 118°15'0 0.0
2016-Aug-25 23:33N 33°44' W 118°15'0 0.0
2016-Aug-25 22:15N 33°44' W 118°15'0 0.0
2016-Aug-25 21:33N 33°44' W 118°15'0 0.0
2016-Aug-25 20:12N 33°44' W 118°15'0 0.0
2016-Aug-25 19:33N 33°44' W 118°15'0 0.0
2016-Aug-25 17:33N 33°44' W 118°15'0 0.0
2016-Aug-25 16:33N 33°44' W 118°15'0 0.0
2016-Aug-25 15:33N 33°44' W 118°15'0 0.0
2016-Aug-25 14:33N 33°44' W 118°15'0 0.0
2016-Aug-25 13:30N 33°44' W 118°15'1 0.8
2016-Aug-25 12:33N 33°43' W 118°16'4 4.2
2016-Aug-25 11:33N 33°39' W 118°13'7 7.2
2016-Aug-25 10:33N 33°36' W 118°21'9 8.6
2016-Aug-25 09:33N 33°36' W 118°31'8 8.2
2016-Aug-25 08:33N 33°36' W 118°41'1110.5
2016-Aug-25 07:33N 33°36' W 118°54'1111.1
2016-Aug-25 06:33N 33°36' W 119°07'3311.1
2016-Aug-25 03:33N 33°36' W 119°47'1111.0
2016-Aug-25 02:34N 33°36' W 120°00'1111.2
2016-Aug-25 01:33N 33°36' W 120°14'1110.9
2016-Aug-25 00:33N 33°36' W 120°27'1111.4
2016-Aug-24 23:33N 33°36' W 120°40'1111.1
2016-Aug-24 22:33N 33°36' W 120°54'1111.2
2016-Aug-24 21:33N 33°36' W 121°07'1611.1
2016-Aug-24 20:08N 33°39' W 121°26'712.1
2016-Aug-24 19:33N 33°42' W 121°34'1211.6
2016-Aug-24 18:33N 33°40' W 121°47'1111.0
2016-Aug-24 17:33N 33°36' W 121°60'9 8.7
2016-Aug-24 16:33N 33°36' W 122°10'1413.6
2016-Aug-24 15:33N 33°36' W 122°27'2813.6
2016-Aug-24 13:27N 33°36' W 123°01'1313.4
2016-Aug-24 12:30N 33°36' W 123°16'1513.7
2016-Aug-24 11:23N 33°36' W 123°35'2913.7
2016-Aug-24 09:15N 33°36' W 124°10'6714.2
2016-Aug-24 04:33N 34°02' W 125°24'48420.1
2016-Aug-23 04:31N 37°52' W 134°10'  
Track history (hours):
 
Tides and Currents Weather Stations Pressure Air Temp Water Temp Dewpoint Dewpoint Depression Visibility Wind Speed Wind Dir Waves Ship Positions

CMA CGM Columba

Last reported at 2016-Aug-26 20:09 UTC. Time now 2016-Aug-27 01:10 UTC.
Position N 33°44' W 118°15'.

Length 363 m; draft 12.8 m.

Type: Ship (hazmat cat A). MMSI: 235077448.

Date/timePositionNaut miles runAvg speedWind from/ knotsBaromVisibWave heightAir tempDewpointWater temp
2016-Aug-26 20:09N 33°44' W 118°15'0 0.0
2016-Aug-26 19:33N 33°44' W 118°15'0 0.0
2016-Aug-26 18:33N 33°44' W 118°15'0 0.0
2016-Aug-26 17:30N 33°44' W 118°15'0 0.0
2016-Aug-26 15:27N 33°44' W 118°15'0 0.0
2016-Aug-26 14:33N 33°44' W 118°15'0 0.0
2016-Aug-26 13:33N 33°44' W 118°15'0 0.0
2016-Aug-26 12:33N 33°44' W 118°15'0 0.0
2016-Aug-26 11:33N 33°44' W 118°15'0 0.0
2016-Aug-26 10:33N 33°44' W 118°15'0 0.0
2016-Aug-26 09:33N 33°44' W 118°15'0 0.0
2016-Aug-26 08:30N 33°44' W 118°15'0 0.0
2016-Aug-26 07:33N 33°44' W 118°15'0 0.0
2016-Aug-26 06:33N 33°44' W 118°15'0 0.0
2016-Aug-26 04:33N 33°44' W 118°15'0 0.0
2016-Aug-26 03:33N 33°44' W 118°15'0 0.0
2016-Aug-26 02:30N 33°44' W 118°15'0 0.0
2016-Aug-26 01:33N 33°44' W 118°15'0 0.0
2016-Aug-26 00:33N 33°44' W 118°15'0 0.0
2016-Aug-25 23:33N 33°44' W 118°15'0 0.0
2016-Aug-25 22:15N 33°44' W 118°15'0 0.0
2016-Aug-25 21:33N 33°44' W 118°15'0 0.0
2016-Aug-25 20:12N 33°44' W 118°15'0 0.0
2016-Aug-25 19:33N 33°44' W 118°15'0 0.0
2016-Aug-25 17:33N 33°44' W 118°15'0 0.0
2016-Aug-25 16:33N 33°44' W 118°15'0 0.0
2016-Aug-25 15:33N 33°44' W 118°15'0 0.0
2016-Aug-25 14:33N 33°44' W 118°15'0 0.0
2016-Aug-25 13:30N 33°44' W 118°15'1 0.8
2016-Aug-25 12:33N 33°43' W 118°16'4 4.2
2016-Aug-25 11:33N 33°39' W 118°13'7 7.2
2016-Aug-25 10:33N 33°36' W 118°21'9 8.6
2016-Aug-25 09:33N 33°36' W 118°31'8 8.2
2016-Aug-25 08:33N 33°36' W 118°41'1110.5
2016-Aug-25 07:33N 33°36' W 118°54'1111.1
2016-Aug-25 06:33N 33°36' W 119°07'3311.1
2016-Aug-25 03:33N 33°36' W 119°47'1111.0
2016-Aug-25 02:34N 33°36' W 120°00'1111.2
2016-Aug-25 01:33N 33°36' W 120°14'1110.9
2016-Aug-25 00:33N 33°36' W 120°27'1111.4
2016-Aug-24 23:33N 33°36' W 120°40'1111.1
2016-Aug-24 22:33N 33°36' W 120°54'1111.2
2016-Aug-24 21:33N 33°36' W 121°07'1611.1
2016-Aug-24 20:08N 33°39' W 121°26'712.1
2016-Aug-24 19:33N 33°42' W 121°34'1211.6
2016-Aug-24 18:33N 33°40' W 121°47'1111.0
2016-Aug-24 17:33N 33°36' W 121°60'9 8.7
2016-Aug-24 16:33N 33°36' W 122°10'1413.6
2016-Aug-24 15:33N 33°36' W 122°27'2813.6
2016-Aug-24 13:27N 33°36' W 123°01'1313.4
2016-Aug-24 12:30N 33°36' W 123°16'1513.7
2016-Aug-24 11:23N 33°36' W 123°35'2913.7
2016-Aug-24 09:15N 33°36' W 124°10'6714.2
2016-Aug-24 04:33N 34°02' W 125°24'48420.1
2016-Aug-23 04:31N 37°52' W 134°10'  

Dump ship's entire track history